sensor_id;sensor_type;location;lat;lon;timestamp;temperature;humidity
16200;DHT22;8207;52.494;4.654;2023-03-14T00:01:34;9.90;99.90
16200;DHT22;8207;52.494;4.654;2023-03-14T00:04:03;9.90;99.90
16200;DHT22;8207;52.494;4.654;2023-03-14T00:06:30;9.80;99.90
16200;DHT22;8207;52.494;4.654;2023-03-14T00:08:57;9.80;99.90
16200;DHT22;8207;52.494;4.654;2023-03-14T00:11:24;9.80;99.90
16200;DHT22;8207;52.494;4.654;2023-03-14T00:13:53;9.80;99.90
16200;DHT22;8207;52.494;4.654;2023-03-14T00:16:20;9.80;99.90
16200;DHT22;8207;52.494;4.654;2023-03-14T00:18:47;9.80;99.90
16200;DHT22;8207;52.494;4.654;2023-03-14T00:21:14;9.80;99.90
16200;DHT22;8207;52.494;4.654;2023-03-14T00:23:42;9.80;99.90
16200;DHT22;8207;52.494;4.654;2023-03-14T00:26:11;9.80;99.90
16200;DHT22;8207;52.494;4.654;2023-03-14T00:28:38;9.80;99.90
16200;DHT22;8207;52.494;4.654;2023-03-14T00:31:08;9.80;99.90
16200;DHT22;8207;52.494;4.654;2023-03-14T00:33:36;9.80;99.90
16200;DHT22;8207;52.494;4.654;2023-03-14T00:36:05;9.70;99.90
16200;DHT22;8207;52.494;4.654;2023-03-14T00:38:34;9.70;99.90
16200;DHT22;8207;52.494;4.654;2023-03-14T00:41:03;9.70;99.90
16200;DHT22;8207;52.494;4.654;2023-03-14T00:43:30;9.70;99.90
16200;DHT22;8207;52.494;4.654;2023-03-14T00:45:58;9.80;99.90
16200;DHT22;8207;52.494;4.654;2023-03-14T00:48:27;9.80;99.90
16200;DHT22;8207;52.494;4.654;2023-03-14T00:50:54;9.80;99.90
16200;DHT22;8207;52.494;4.654;2023-03-14T00:53:21;9.80;99.90
16200;DHT22;8207;52.494;4.654;2023-03-14T00:55:48;9.80;99.90
16200;DHT22;8207;52.494;4.654;2023-03-14T00:58:16;9.80;99.90
16200;DHT22;8207;52.494;4.654;2023-03-14T01:00:45;9.80;99.90
16200;DHT22;8207;52.494;4.654;2023-03-14T01:03:13;9.80;99.90
16200;DHT22;8207;52.494;4.654;2023-03-14T01:05:41;9.70;99.90
16200;DHT22;8207;52.494;4.654;2023-03-14T01:08:08;9.70;99.90
16200;DHT22;8207;52.494;4.654;2023-03-14T01:10:38;9.70;99.90
16200;DHT22;8207;52.494;4.654;2023-03-14T01:13:06;9.80;99.90
16200;DHT22;8207;52.494;4.654;2023-03-14T01:15:33;9.70;99.90
16200;DHT22;8207;52.494;4.654;2023-03-14T01:18:00;9.70;99.90
16200;DHT22;8207;52.494;4.654;2023-03-14T01:20:27;9.70;99.90
16200;DHT22;8207;52.494;4.654;2023-03-14T01:22:55;9.70;99.90
16200;DHT22;8207;52.494;4.654;2023-03-14T01:25:22;9.70;99.90
16200;DHT22;8207;52.494;4.654;2023-03-14T01:27:49;9.70;99.90
16200;DHT22;8207;52.494;4.654;2023-03-14T01:30:16;9.70;99.90
16200;DHT22;8207;52.494;4.654;2023-03-14T01:32:43;9.60;99.90
16200;DHT22;8207;52.494;4.654;2023-03-14T01:35:10;9.60;99.90
16200;DHT22;8207;52.494;4.654;2023-03-14T01:37:37;9.60;99.90
16200;DHT22;8207;52.494;4.654;2023-03-14T01:40:08;9.60;99.90
16200;DHT22;8207;52.494;4.654;2023-03-14T01:42:36;9.60;99.90
16200;DHT22;8207;52.494;4.654;2023-03-14T01:45:03;9.60;99.90
16200;DHT22;8207;52.494;4.654;2023-03-14T01:47:31;9.60;99.90
16200;DHT22;8207;52.494;4.654;2023-03-14T01:50:01;9.60;99.90
16200;DHT22;8207;52.494;4.654;2023-03-14T01:52:31;9.60;99.90
16200;DHT22;8207;52.494;4.654;2023-03-14T01:55:06;9.60;99.90
16200;DHT22;8207;52.494;4.654;2023-03-14T01:57:35;9.60;99.90
16200;DHT22;8207;52.494;4.654;2023-03-14T02:00:07;9.60;99.90
16200;DHT22;8207;52.494;4.654;2023-03-14T02:02:37;9.50;99.90
16200;DHT22;8207;52.494;4.654;2023-03-14T02:05:06;9.50;99.90
16200;DHT22;8207;52.494;4.654;2023-03-14T02:07:36;9.50;99.90
16200;DHT22;8207;52.494;4.654;2023-03-14T02:10:08;9.50;99.90
16200;DHT22;8207;52.494;4.654;2023-03-14T02:12:36;9.50;99.90
16200;DHT22;8207;52.494;4.654;2023-03-14T02:15:05;9.50;99.90
16200;DHT22;8207;52.494;4.654;2023-03-14T02:17:32;9.50;99.90
16200;DHT22;8207;52.494;4.654;2023-03-14T02:20:24;9.50;99.90
16200;DHT22;8207;52.494;4.654;2023-03-14T02:22:53;9.50;99.90
16200;DHT22;8207;52.494;4.654;2023-03-14T02:25:28;9.50;99.90
16200;DHT22;8207;52.494;4.654;2023-03-14T02:27:59;9.50;99.90
16200;DHT22;8207;52.494;4.654;2023-03-14T02:30:28;9.50;99.90
16200;DHT22;8207;52.494;4.654;2023-03-14T02:32:59;9.50;99.90
16200;DHT22;8207;52.494;4.654;2023-03-14T02:35:33;9.50;99.90
16200;DHT22;8207;52.494;4.654;2023-03-14T02:38:08;9.50;99.90
16200;DHT22;8207;52.494;4.654;2023-03-14T02:40:38;9.50;99.90
16200;DHT22;8207;52.494;4.654;2023-03-14T02:43:06;9.50;99.90
16200;DHT22;8207;52.494;4.654;2023-03-14T02:45:39;9.50;99.90
16200;DHT22;8207;52.494;4.654;2023-03-14T02:48:11;9.50;99.90
16200;DHT22;8207;52.494;4.654;2023-03-14T02:50:40;9.50;99.90
16200;DHT22;8207;52.494;4.654;2023-03-14T02:53:07;9.50;99.90
16200;DHT22;8207;52.494;4.654;2023-03-14T02:55:34;9.50;99.90
16200;DHT22;8207;52.494;4.654;2023-03-14T02:58:01;9.50;99.90
16200;DHT22;8207;52.494;4.654;2023-03-14T03:00:29;9.50;99.90
16200;DHT22;8207;52.494;4.654;2023-03-14T03:02:57;9.50;99.90
16200;DHT22;8207;52.494;4.654;2023-03-14T03:05:24;9.60;99.90
16200;DHT22;8207;52.494;4.654;2023-03-14T03:07:51;9.50;99.90
16200;DHT22;8207;52.494;4.654;2023-03-14T03:10:18;9.50;99.90
16200;DHT22;8207;52.494;4.654;2023-03-14T03:12:45;9.60;99.90
16200;DHT22;8207;52.494;4.654;2023-03-14T03:15:12;9.60;99.90
16200;DHT22;8207;52.494;4.654;2023-03-14T03:17:40;9.60;99.90
16200;DHT22;8207;52.494;4.654;2023-03-14T03:20:09;9.60;99.90
16200;DHT22;8207;52.494;4.654;2023-03-14T03:22:36;9.60;99.90
16200;DHT22;8207;52.494;4.654;2023-03-14T03:25:05;9.60;99.90
16200;DHT22;8207;52.494;4.654;2023-03-14T03:27:33;9.70;99.90
16200;DHT22;8207;52.494;4.654;2023-03-14T03:30:02;9.70;99.90
16200;DHT22;8207;52.494;4.654;2023-03-14T03:32:29;9.80;99.90
16200;DHT22;8207;52.494;4.654;2023-03-14T03:34:57;9.80;99.90
16200;DHT22;8207;52.494;4.654;2023-03-14T03:37:24;9.80;99.90
16200;DHT22;8207;52.494;4.654;2023-03-14T03:39:51;9.80;99.90
16200;DHT22;8207;52.494;4.654;2023-03-14T03:42:18;9.80;99.90
16200;DHT22;8207;52.494;4.654;2023-03-14T03:44:45;9.80;99.90
16200;DHT22;8207;52.494;4.654;2023-03-14T03:47:13;9.80;99.90
16200;DHT22;8207;52.494;4.654;2023-03-14T03:49:39;9.80;99.90
16200;DHT22;8207;52.494;4.654;2023-03-14T03:52:08;9.80;99.90
16200;DHT22;8207;52.494;4.654;2023-03-14T03:54:35;9.70;99.90
16200;DHT22;8207;52.494;4.654;2023-03-14T03:57:02;9.70;99.90
16200;DHT22;8207;52.494;4.654;2023-03-14T03:59:29;9.70;99.90
16200;DHT22;8207;52.494;4.654;2023-03-14T04:01:56;9.70;99.90
16200;DHT22;8207;52.494;4.654;2023-03-14T04:04:23;9.70;99.90
16200;DHT22;8207;52.494;4.654;2023-03-14T04:06:50;9.70;99.90
16200;DHT22;8207;52.494;4.654;2023-03-14T04:09:19;9.70;99.90
16200;DHT22;8207;52.494;4.654;2023-03-14T04:11:45;9.60;99.90
16200;DHT22;8207;52.494;4.654;2023-03-14T04:14:12;9.60;99.90
16200;DHT22;8207;52.494;4.654;2023-03-14T04:16:39;9.60;99.90
16200;DHT22;8207;52.494;4.654;2023-03-14T04:19:06;9.60;99.90
16200;DHT22;8207;52.494;4.654;2023-03-14T04:21:33;9.50;99.90
16200;DHT22;8207;52.494;4.654;2023-03-14T04:24:00;9.50;99.90
16200;DHT22;8207;52.494;4.654;2023-03-14T04:26:28;9.50;99.90
16200;DHT22;8207;52.494;4.654;2023-03-14T04:28:55;9.50;99.90
16200;DHT22;8207;52.494;4.654;2023-03-14T04:31:22;9.50;99.90
16200;DHT22;8207;52.494;4.654;2023-03-14T04:33:49;9.50;99.90
16200;DHT22;8207;52.494;4.654;2023-03-14T04:36:16;9.40;99.90
16200;DHT22;8207;52.494;4.654;2023-03-14T04:38:43;9.40;99.90
16200;DHT22;8207;52.494;4.654;2023-03-14T04:41:10;9.40;99.90
16200;DHT22;8207;52.494;4.654;2023-03-14T04:43:38;9.40;99.90
16200;DHT22;8207;52.494;4.654;2023-03-14T04:46:06;9.40;99.90
16200;DHT22;8207;52.494;4.654;2023-03-14T04:48:33;9.40;99.90
16200;DHT22;8207;52.494;4.654;2023-03-14T04:51:00;9.30;99.90
16200;DHT22;8207;52.494;4.654;2023-03-14T04:53:26;9.40;99.90
16200;DHT22;8207;52.494;4.654;2023-03-14T04:55:55;9.40;99.90
16200;DHT22;8207;52.494;4.654;2023-03-14T04:58:22;9.30;99.90
16200;DHT22;8207;52.494;4.654;2023-03-14T05:00:51;9.30;99.90
16200;DHT22;8207;52.494;4.654;2023-03-14T05:03:18;9.30;99.90
16200;DHT22;8207;52.494;4.654;2023-03-14T05:05:46;9.30;99.90
16200;DHT22;8207;52.494;4.654;2023-03-14T05:08:13;9.30;99.90
16200;DHT22;8207;52.494;4.654;2023-03-14T05:10:40;9.30;99.90
16200;DHT22;8207;52.494;4.654;2023-03-14T05:13:06;9.40;99.90
16200;DHT22;8207;52.494;4.654;2023-03-14T05:15:33;9.30;99.90
16200;DHT22;8207;52.494;4.654;2023-03-14T05:18:02;9.30;99.90
16200;DHT22;8207;52.494;4.654;2023-03-14T05:20:29;9.20;99.90
16200;DHT22;8207;52.494;4.654;2023-03-14T05:22:56;9.10;99.90
16200;DHT22;8207;52.494;4.654;2023-03-14T05:25:23;9.00;99.90
16200;DHT22;8207;52.494;4.654;2023-03-14T05:27:50;8.90;99.90
16200;DHT22;8207;52.494;4.654;2023-03-14T05:30:19;8.80;99.90
16200;DHT22;8207;52.494;4.654;2023-03-14T05:32:47;8.70;99.90
16200;DHT22;8207;52.494;4.654;2023-03-14T05:35:15;8.70;99.90
16200;DHT22;8207;52.494;4.654;2023-03-14T05:37:42;8.60;99.90
16200;DHT22;8207;52.494;4.654;2023-03-14T05:40:10;8.60;99.90
16200;DHT22;8207;52.494;4.654;2023-03-14T05:42:37;8.60;99.90
16200;DHT22;8207;52.494;4.654;2023-03-14T05:45:05;8.50;99.90
16200;DHT22;8207;52.494;4.654;2023-03-14T05:47:32;8.50;99.90
16200;DHT22;8207;52.494;4.654;2023-03-14T05:49:59;8.50;99.90
16200;DHT22;8207;52.494;4.654;2023-03-14T05:52:27;8.40;99.90
16200;DHT22;8207;52.494;4.654;2023-03-14T05:54:54;8.30;99.90
16200;DHT22;8207;52.494;4.654;2023-03-14T05:57:21;8.20;99.90
16200;DHT22;8207;52.494;4.654;2023-03-14T05:59:48;8.20;99.90
16200;DHT22;8207;52.494;4.654;2023-03-14T06:02:15;8.20;99.90
16200;DHT22;8207;52.494;4.654;2023-03-14T06:04:41;8.10;99.90
16200;DHT22;8207;52.494;4.654;2023-03-14T06:07:08;8.10;99.90
16200;DHT22;8207;52.494;4.654;2023-03-14T06:09:37;8.10;99.90
16200;DHT22;8207;52.494;4.654;2023-03-14T06:12:05;8.10;99.90
16200;DHT22;8207;52.494;4.654;2023-03-14T06:14:32;8.00;99.90
16200;DHT22;8207;52.494;4.654;2023-03-14T06:16:59;8.00;99.90
16200;DHT22;8207;52.494;4.654;2023-03-14T06:19:26;7.90;99.90
16200;DHT22;8207;52.494;4.654;2023-03-14T06:21:53;7.90;99.90
16200;DHT22;8207;52.494;4.654;2023-03-14T06:24:20;7.90;99.90
16200;DHT22;8207;52.494;4.654;2023-03-14T06:26:48;7.80;99.90
16200;DHT22;8207;52.494;4.654;2023-03-14T06:29:15;7.80;99.90
16200;DHT22;8207;52.494;4.654;2023-03-14T06:31:42;7.80;99.90
16200;DHT22;8207;52.494;4.654;2023-03-14T06:34:08;7.80;99.90
16200;DHT22;8207;52.494;4.654;2023-03-14T06:36:35;7.80;99.90
16200;DHT22;8207;52.494;4.654;2023-03-14T06:39:02;7.80;99.90
16200;DHT22;8207;52.494;4.654;2023-03-14T06:41:29;7.70;99.90
16200;DHT22;8207;52.494;4.654;2023-03-14T06:43:57;7.80;99.90
16200;DHT22;8207;52.494;4.654;2023-03-14T06:46:24;7.70;99.90
16200;DHT22;8207;52.494;4.654;2023-03-14T06:48:51;7.50;99.90
16200;DHT22;8207;52.494;4.654;2023-03-14T06:51:19;7.30;99.90
16200;DHT22;8207;52.494;4.654;2023-03-14T06:53:45;7.10;99.90
16200;DHT22;8207;52.494;4.654;2023-03-14T06:56:12;7.00;99.90
16200;DHT22;8207;52.494;4.654;2023-03-14T06:58:39;6.90;99.90
16200;DHT22;8207;52.494;4.654;2023-03-14T07:01:17;6.80;99.90
16200;DHT22;8207;52.494;4.654;2023-03-14T07:03:46;6.70;99.90
16200;DHT22;8207;52.494;4.654;2023-03-14T07:06:13;6.70;99.90
16200;DHT22;8207;52.494;4.654;2023-03-14T07:08:40;6.60;99.90
16200;DHT22;8207;52.494;4.654;2023-03-14T07:11:07;6.50;99.90
16200;DHT22;8207;52.494;4.654;2023-03-14T07:13:35;6.40;99.90
16200;DHT22;8207;52.494;4.654;2023-03-14T07:16:02;6.40;99.90
16200;DHT22;8207;52.494;4.654;2023-03-14T07:18:31;6.40;99.90
16200;DHT22;8207;52.494;4.654;2023-03-14T07:20:58;6.40;99.90
16200;DHT22;8207;52.494;4.654;2023-03-14T07:23:25;6.40;99.90
16200;DHT22;8207;52.494;4.654;2023-03-14T07:25:52;6.40;99.90
16200;DHT22;8207;52.494;4.654;2023-03-14T07:28:19;6.30;99.90
16200;DHT22;8207;52.494;4.654;2023-03-14T07:30:46;6.30;99.90
16200;DHT22;8207;52.494;4.654;2023-03-14T07:33:13;6.30;99.90
16200;DHT22;8207;52.494;4.654;2023-03-14T07:35:41;6.30;99.90
16200;DHT22;8207;52.494;4.654;2023-03-14T07:38:08;6.20;99.90
16200;DHT22;8207;52.494;4.654;2023-03-14T07:40:35;6.20;99.90
16200;DHT22;8207;52.494;4.654;2023-03-14T07:43:02;6.30;99.90
16200;DHT22;8207;52.494;4.654;2023-03-14T07:45:29;6.30;99.90
16200;DHT22;8207;52.494;4.654;2023-03-14T07:47:56;6.30;99.90
16200;DHT22;8207;52.494;4.654;2023-03-14T07:50:23;6.30;99.90
16200;DHT22;8207;52.494;4.654;2023-03-14T07:52:52;6.30;99.90
16200;DHT22;8207;52.494;4.654;2023-03-14T07:55:18;6.40;99.90
16200;DHT22;8207;52.494;4.654;2023-03-14T07:57:45;6.50;99.90
16200;DHT22;8207;52.494;4.654;2023-03-14T08:00:13;6.50;99.90
16200;DHT22;8207;52.494;4.654;2023-03-14T08:03:12;6.50;99.90
16200;DHT22;8207;52.494;4.654;2023-03-14T08:05:39;6.60;99.90
16200;DHT22;8207;52.494;4.654;2023-03-14T08:08:09;6.70;99.90
16200;DHT22;8207;52.494;4.654;2023-03-14T08:10:35;6.80;99.90
16200;DHT22;8207;52.494;4.654;2023-03-14T08:13:02;6.80;99.90
16200;DHT22;8207;52.494;4.654;2023-03-14T08:15:30;6.90;99.90
16200;DHT22;8207;52.494;4.654;2023-03-14T08:17:57;7.00;99.90
16200;DHT22;8207;52.494;4.654;2023-03-14T08:20:31;6.90;99.90
16200;DHT22;8207;52.494;4.654;2023-03-14T08:22:59;7.00;99.90
16200;DHT22;8207;52.494;4.654;2023-03-14T08:25:31;7.00;99.90
16200;DHT22;8207;52.494;4.654;2023-03-14T08:27:58;7.00;99.90
16200;DHT22;8207;52.494;4.654;2023-03-14T08:30:25;7.10;99.90
16200;DHT22;8207;52.494;4.654;2023-03-14T08:32:52;7.10;99.90
16200;DHT22;8207;52.494;4.654;2023-03-14T08:35:19;7.20;99.90
16200;DHT22;8207;52.494;4.654;2023-03-14T08:37:46;7.10;99.90
16200;DHT22;8207;52.494;4.654;2023-03-14T08:40:13;7.20;99.90
16200;DHT22;8207;52.494;4.654;2023-03-14T08:42:44;7.20;99.90
16200;DHT22;8207;52.494;4.654;2023-03-14T08:45:13;7.20;99.90
16200;DHT22;8207;52.494;4.654;2023-03-14T08:47:40;7.10;99.90
16200;DHT22;8207;52.494;4.654;2023-03-14T08:50:08;6.90;99.90
16200;DHT22;8207;52.494;4.654;2023-03-14T08:52:35;6.70;99.90
16200;DHT22;8207;52.494;4.654;2023-03-14T08:55:04;6.50;99.90
16200;DHT22;8207;52.494;4.654;2023-03-14T08:57:30;6.40;99.90
16200;DHT22;8207;52.494;4.654;2023-03-14T08:59:59;6.40;99.90
16200;DHT22;8207;52.494;4.654;2023-03-14T09:02:26;6.40;99.90
16200;DHT22;8207;52.494;4.654;2023-03-14T09:04:54;6.40;99.90
16200;DHT22;8207;52.494;4.654;2023-03-14T09:07:20;6.50;99.90
16200;DHT22;8207;52.494;4.654;2023-03-14T09:09:47;6.50;99.90
16200;DHT22;8207;52.494;4.654;2023-03-14T09:12:14;6.50;99.90
16200;DHT22;8207;52.494;4.654;2023-03-14T09:14:41;6.50;99.90
16200;DHT22;8207;52.494;4.654;2023-03-14T09:17:10;6.60;99.90
16200;DHT22;8207;52.494;4.654;2023-03-14T09:19:37;6.60;99.90
16200;DHT22;8207;52.494;4.654;2023-03-14T09:22:04;6.70;99.90
16200;DHT22;8207;52.494;4.654;2023-03-14T09:24:31;6.80;99.90
16200;DHT22;8207;52.494;4.654;2023-03-14T09:26:57;6.80;99.90
16200;DHT22;8207;52.494;4.654;2023-03-14T09:29:25;6.80;99.90
16200;DHT22;8207;52.494;4.654;2023-03-14T09:31:51;6.80;99.90
16200;DHT22;8207;52.494;4.654;2023-03-14T09:34:20;6.80;99.90
16200;DHT22;8207;52.494;4.654;2023-03-14T09:36:47;6.80;99.90
16200;DHT22;8207;52.494;4.654;2023-03-14T09:39:14;6.80;99.90
16200;DHT22;8207;52.494;4.654;2023-03-14T09:41:44;6.80;99.90
16200;DHT22;8207;52.494;4.654;2023-03-14T09:44:14;6.80;99.90
16200;DHT22;8207;52.494;4.654;2023-03-14T09:46:45;6.80;99.90
16200;DHT22;8207;52.494;4.654;2023-03-14T09:49:21;6.80;99.90
16200;DHT22;8207;52.494;4.654;2023-03-14T09:51:53;6.90;99.90
16200;DHT22;8207;52.494;4.654;2023-03-14T09:54:36;6.90;99.90
16200;DHT22;8207;52.494;4.654;2023-03-14T09:57:05;7.10;99.90
16200;DHT22;8207;52.494;4.654;2023-03-14T09:59:33;7.10;99.90
16200;DHT22;8207;52.494;4.654;2023-03-14T10:02:13;7.10;99.90
16200;DHT22;8207;52.494;4.654;2023-03-14T10:04:42;7.10;99.90
16200;DHT22;8207;52.494;4.654;2023-03-14T10:07:13;7.20;99.90
16200;DHT22;8207;52.494;4.654;2023-03-14T10:09:43;7.10;99.90
16200;DHT22;8207;52.494;4.654;2023-03-14T10:12:10;7.10;99.90
16200;DHT22;8207;52.494;4.654;2023-03-14T10:14:45;7.30;99.90
16200;DHT22;8207;52.494;4.654;2023-03-14T10:17:13;7.50;99.90
16200;DHT22;8207;52.494;4.654;2023-03-14T10:19:53;7.60;99.90
16200;DHT22;8207;52.494;4.654;2023-03-14T10:22:20;7.70;99.90
16200;DHT22;8207;52.494;4.654;2023-03-14T10:24:52;7.80;99.90
16200;DHT22;8207;52.494;4.654;2023-03-14T10:27:21;7.90;99.90
16200;DHT22;8207;52.494;4.654;2023-03-14T10:29:53;7.90;99.90
16200;DHT22;8207;52.494;4.654;2023-03-14T10:32:22;7.90;99.90
16200;DHT22;8207;52.494;4.654;2023-03-14T10:35:20;8.00;99.90
16200;DHT22;8207;52.494;4.654;2023-03-14T10:37:56;8.20;99.90
16200;DHT22;8207;52.494;4.654;2023-03-14T10:40:27;8.30;99.90
16200;DHT22;8207;52.494;4.654;2023-03-14T10:42:55;8.40;99.90
16200;DHT22;8207;52.494;4.654;2023-03-14T10:45:35;8.50;99.90
16200;DHT22;8207;52.494;4.654;2023-03-14T10:48:17;8.60;99.90
16200;DHT22;8207;52.494;4.654;2023-03-14T10:50:54;8.60;99.90
16200;DHT22;8207;52.494;4.654;2023-03-14T10:53:22;8.60;99.90
16200;DHT22;8207;52.494;4.654;2023-03-14T10:55:49;8.60;99.90
16200;DHT22;8207;52.494;4.654;2023-03-14T10:58:22;8.60;99.90
16200;DHT22;8207;52.494;4.654;2023-03-14T11:00:54;8.70;99.90
16200;DHT22;8207;52.494;4.654;2023-03-14T11:03:25;8.40;99.90
16200;DHT22;8207;52.494;4.654;2023-03-14T11:05:57;8.40;99.90
16200;DHT22;8207;52.494;4.654;2023-03-14T11:08:27;8.50;99.90
16200;DHT22;8207;52.494;4.654;2023-03-14T11:11:07;8.70;99.90
16200;DHT22;8207;52.494;4.654;2023-03-14T11:13:41;8.70;99.90
16200;DHT22;8207;52.494;4.654;2023-03-14T11:16:18;8.80;99.90
16200;DHT22;8207;52.494;4.654;2023-03-14T11:19:00;8.80;99.90
16200;DHT22;8207;52.494;4.654;2023-03-14T11:21:35;8.80;99.90
16200;DHT22;8207;52.494;4.654;2023-03-14T11:24:16;8.80;99.90
16200;DHT22;8207;52.494;4.654;2023-03-14T11:26:50;8.70;99.90
16200;DHT22;8207;52.494;4.654;2023-03-14T11:29:21;8.80;99.90
16200;DHT22;8207;52.494;4.654;2023-03-14T11:31:49;8.90;99.90
16200;DHT22;8207;52.494;4.654;2023-03-14T11:34:17;9.00;99.90
16200;DHT22;8207;52.494;4.654;2023-03-14T11:36:51;9.10;99.90
16200;DHT22;8207;52.494;4.654;2023-03-14T11:39:20;9.20;99.90
16200;DHT22;8207;52.494;4.654;2023-03-14T11:41:49;9.30;99.90
16200;DHT22;8207;52.494;4.654;2023-03-14T11:44:19;9.30;99.90
16200;DHT22;8207;52.494;4.654;2023-03-14T11:46:50;9.30;99.90
16200;DHT22;8207;52.494;4.654;2023-03-14T11:49:27;9.30;99.90
16200;DHT22;8207;52.494;4.654;2023-03-14T11:52:00;9.20;99.90
16200;DHT22;8207;52.494;4.654;2023-03-14T11:54:35;9.10;99.90
16200;DHT22;8207;52.494;4.654;2023-03-14T11:57:04;9.00;99.90
16200;DHT22;8207;52.494;4.654;2023-03-14T11:59:41;9.00;99.90
16200;DHT22;8207;52.494;4.654;2023-03-14T12:02:16;9.20;99.90
16200;DHT22;8207;52.494;4.654;2023-03-14T12:04:57;9.40;99.90
16200;DHT22;8207;52.494;4.654;2023-03-14T12:07:36;9.50;99.90
16200;DHT22;8207;52.494;4.654;2023-03-14T12:10:06;9.40;1.00
16200;DHT22;8207;52.494;4.654;2023-03-14T12:12:33;9.30;99.90
16200;DHT22;8207;52.494;4.654;2023-03-14T12:15:02;9.30;56.00
16200;DHT22;8207;52.494;4.654;2023-03-14T12:17:35;9.30;1.00
16200;DHT22;8207;52.494;4.654;2023-03-14T12:20:05;9.40;99.90
16200;DHT22;8207;52.494;4.654;2023-03-14T12:22:35;9.50;37.00
16200;DHT22;8207;52.494;4.654;2023-03-14T12:25:06;9.50;1.00
16200;DHT22;8207;52.494;4.654;2023-03-14T12:27:46;9.40;1.00
16200;DHT22;8207;52.494;4.654;2023-03-14T12:30:28;9.30;1.00
16200;DHT22;8207;52.494;4.654;2023-03-14T12:33:29;9.40;99.90
16200;DHT22;8207;52.494;4.654;2023-03-14T12:36:32;9.40;99.90
16200;DHT22;8207;52.494;4.654;2023-03-14T12:39:25;9.30;99.90
16200;DHT22;8207;52.494;4.654;2023-03-14T12:42:02;9.30;99.90
16200;DHT22;8207;52.494;4.654;2023-03-14T12:44:46;9.40;99.90
16200;DHT22;8207;52.494;4.654;2023-03-14T12:47:53;9.40;99.90
16200;DHT22;8207;52.494;4.654;2023-03-14T12:50:25;9.20;99.90
16200;DHT22;8207;52.494;4.654;2023-03-14T12:53:16;9.20;99.90
16200;DHT22;8207;52.494;4.654;2023-03-14T12:55:54;9.30;99.90
16200;DHT22;8207;52.494;4.654;2023-03-14T12:58:29;9.10;99.90
16200;DHT22;8207;52.494;4.654;2023-03-14T13:01:00;8.80;99.90
16200;DHT22;8207;52.494;4.654;2023-03-14T13:03:39;8.70;99.90
16200;DHT22;8207;52.494;4.654;2023-03-14T13:06:09;8.60;99.90
16200;DHT22;8207;52.494;4.654;2023-03-14T13:08:39;8.50;99.90
16200;DHT22;8207;52.494;4.654;2023-03-14T13:11:10;8.70;99.90
16200;DHT22;8207;52.494;4.654;2023-03-14T13:13:44;8.80;99.90
16200;DHT22;8207;52.494;4.654;2023-03-14T13:16:16;8.90;99.90
16200;DHT22;8207;52.494;4.654;2023-03-14T13:18:44;9.00;99.90
16200;DHT22;8207;52.494;4.654;2023-03-14T13:21:15;9.10;1.00
16200;DHT22;8207;52.494;4.654;2023-03-14T13:24:03;9.10;1.00
16200;DHT22;8207;52.494;4.654;2023-03-14T13:26:37;9.20;99.90
16200;DHT22;8207;52.494;4.654;2023-03-14T13:29:09;9.20;99.90
16200;DHT22;8207;52.494;4.654;2023-03-14T13:31:43;9.10;1.00
16200;DHT22;8207;52.494;4.654;2023-03-14T13:34:11;9.10;1.00
16200;DHT22;8207;52.494;4.654;2023-03-14T13:36:38;9.20;1.00
16200;DHT22;8207;52.494;4.654;2023-03-14T13:39:10;9.20;1.00
16200;DHT22;8207;52.494;4.654;2023-03-14T13:41:41;9.20;99.90
16200;DHT22;8207;52.494;4.654;2023-03-14T13:44:14;8.90;1.00
16200;DHT22;8207;52.494;4.654;2023-03-14T13:46:42;9.00;1.00
16200;DHT22;8207;52.494;4.654;2023-03-14T13:49:11;9.00;99.90
16200;DHT22;8207;52.494;4.654;2023-03-14T13:51:39;8.90;1.00
16200;DHT22;8207;52.494;4.654;2023-03-14T13:54:13;8.90;67.30
16200;DHT22;8207;52.494;4.654;2023-03-14T13:56:42;8.90;99.90
16200;DHT22;8207;52.494;4.654;2023-03-14T13:59:21;8.90;99.90
16200;DHT22;8207;52.494;4.654;2023-03-14T14:01:49;9.00;99.90
16200;DHT22;8207;52.494;4.654;2023-03-14T14:04:18;9.00;99.90
16200;DHT22;8207;52.494;4.654;2023-03-14T14:06:49;9.00;99.90
16200;DHT22;8207;52.494;4.654;2023-03-14T14:09:19;9.00;99.90
16200;DHT22;8207;52.494;4.654;2023-03-14T14:11:52;9.00;99.90
16200;DHT22;8207;52.494;4.654;2023-03-14T14:14:23;8.90;99.90
16200;DHT22;8207;52.494;4.654;2023-03-14T14:16:52;8.80;99.90
16200;DHT22;8207;52.494;4.654;2023-03-14T14:19:22;8.80;99.90
16200;DHT22;8207;52.494;4.654;2023-03-14T14:21:51;8.80;99.90
16200;DHT22;8207;52.494;4.654;2023-03-14T14:24:28;8.80;99.90
16200;DHT22;8207;52.494;4.654;2023-03-14T14:26:59;8.80;99.90
16200;DHT22;8207;52.494;4.654;2023-03-14T14:29:28;8.80;99.90
16200;DHT22;8207;52.494;4.654;2023-03-14T14:32:09;8.80;99.90
16200;DHT22;8207;52.494;4.654;2023-03-14T14:34:43;8.70;99.90
16200;DHT22;8207;52.494;4.654;2023-03-14T14:37:23;8.50;99.90
16200;DHT22;8207;52.494;4.654;2023-03-14T14:39:53;8.50;99.90
16200;DHT22;8207;52.494;4.654;2023-03-14T14:42:25;8.60;99.90
16200;DHT22;8207;52.494;4.654;2023-03-14T14:44:53;8.70;99.90
16200;DHT22;8207;52.494;4.654;2023-03-14T14:47:21;8.70;99.90
16200;DHT22;8207;52.494;4.654;2023-03-14T14:49:50;8.60;99.90
16200;DHT22;8207;52.494;4.654;2023-03-14T14:52:19;8.60;99.90
16200;DHT22;8207;52.494;4.654;2023-03-14T14:54:48;8.60;99.90
16200;DHT22;8207;52.494;4.654;2023-03-14T14:57:23;8.50;99.90
16200;DHT22;8207;52.494;4.654;2023-03-14T14:59:54;8.50;99.90
16200;DHT22;8207;52.494;4.654;2023-03-14T15:02:29;8.40;99.90
16200;DHT22;8207;52.494;4.654;2023-03-14T15:04:57;8.30;99.90
16200;DHT22;8207;52.494;4.654;2023-03-14T15:07:24;8.20;99.90
16200;DHT22;8207;52.494;4.654;2023-03-14T15:09:51;8.20;99.90
16200;DHT22;8207;52.494;4.654;2023-03-14T15:12:18;8.30;99.90
16200;DHT22;8207;52.494;4.654;2023-03-14T15:14:47;8.20;99.90
16200;DHT22;8207;52.494;4.654;2023-03-14T15:17:14;8.30;99.90
16200;DHT22;8207;52.494;4.654;2023-03-14T15:19:40;8.20;99.90
16200;DHT22;8207;52.494;4.654;2023-03-14T15:22:12;8.20;99.90
16200;DHT22;8207;52.494;4.654;2023-03-14T15:24:40;8.20;99.90
16200;DHT22;8207;52.494;4.654;2023-03-14T15:27:12;8.10;99.90
16200;DHT22;8207;52.494;4.654;2023-03-14T15:29:39;8.10;99.90
16200;DHT22;8207;52.494;4.654;2023-03-14T15:32:10;8.10;99.90
16200;DHT22;8207;52.494;4.654;2023-03-14T15:34:37;8.10;99.90
16200;DHT22;8207;52.494;4.654;2023-03-14T15:37:05;8.00;99.90
16200;DHT22;8207;52.494;4.654;2023-03-14T15:39:33;8.00;99.90
16200;DHT22;8207;52.494;4.654;2023-03-14T15:42:00;8.00;99.90
16200;DHT22;8207;52.494;4.654;2023-03-14T15:44:27;8.00;99.90
16200;DHT22;8207;52.494;4.654;2023-03-14T15:46:54;8.00;99.90
16200;DHT22;8207;52.494;4.654;2023-03-14T15:49:22;7.90;99.90
16200;DHT22;8207;52.494;4.654;2023-03-14T15:51:49;7.90;99.90
16200;DHT22;8207;52.494;4.654;2023-03-14T15:54:16;7.80;99.90
16200;DHT22;8207;52.494;4.654;2023-03-14T15:56:43;7.80;99.90
16200;DHT22;8207;52.494;4.654;2023-03-14T15:59:10;7.80;99.90
16200;DHT22;8207;52.494;4.654;2023-03-14T16:01:37;7.80;99.90
16200;DHT22;8207;52.494;4.654;2023-03-14T16:04:03;7.80;99.90
16200;DHT22;8207;52.494;4.654;2023-03-14T16:06:34;7.80;99.90
16200;DHT22;8207;52.494;4.654;2023-03-14T16:09:02;7.70;99.90
16200;DHT22;8207;52.494;4.654;2023-03-14T16:11:29;7.70;99.90
16200;DHT22;8207;52.494;4.654;2023-03-14T16:13:56;7.60;99.90
16200;DHT22;8207;52.494;4.654;2023-03-14T16:16:23;7.60;99.90
16200;DHT22;8207;52.494;4.654;2023-03-14T16:18:50;7.50;99.90